Time;durP1;ratioP1;P1;durP2;ratioP2;P2;SDS_P1;SDS_P2;PMS_P1;PMS_P2;Temp;Humidity;BMP_temperature;BMP_pressure;BME280_temperature;BME280_humidity;BME280_pressure;Samples;Min_cycle;Max_cycle;Signal;HPM_P1;HPM_P2
2022/12/18 00:00:31;;;;;;;92.38;51.70;;;;;;;8.57;100.00;100031.72;5007497;28;20025;-85
2022/12/18 00:02:56;;;;;;;100.50;56.92;;;;;;;8.37;100.00;100023.69;5007855;28;20022;-86
2022/12/18 00:05:22;;;;;;;93.30;55.78;;;;;;;8.41;100.00;100013.56;5018919;28;20026;-86
2022/12/18 00:07:47;;;;;;;97.00;55.92;;;;;;;8.66;100.00;100017.03;5008077;28;20042;-85
2022/12/18 00:10:13;;;;;;;86.88;53.17;;;;;;;8.41;100.00;100016.38;5016456;28;20030;-86
2022/12/18 00:12:38;;;;;;;94.50;56.38;;;;;;;8.24;100.00;100042.88;5011604;28;20037;-85
2022/12/18 00:15:04;;;;;;;97.28;55.60;;;;;;;8.62;100.00;100050.28;5011608;28;20459;-85
2022/12/18 00:17:30;;;;;;;92.72;57.90;;;;;;;8.81;100.00;100055.81;5011514;28;20033;-85
2022/12/18 00:19:55;;;;;;;97.35;54.75;;;;;;;8.79;100.00;100035.75;4969676;28;1253520;-85
2022/12/18 00:22:21;;;;;;;86.13;51.00;;;;;;;8.78;100.00;100050.81;5018001;28;20513;-85
2022/12/18 00:24:46;;;;;;;86.00;53.10;;;;;;;8.78;100.00;100052.81;5009065;28;20034;-85
2022/12/18 00:27:11;;;;;;;85.45;51.40;;;;;;;8.62;100.00;100052.28;5010464;28;20109;-86
2022/12/18 00:29:40;;;;;;;78.85;51.40;;;;;;;8.53;100.00;100075.28;5013652;28;20029;-86
2022/12/18 00:32:05;;;;;;;81.43;51.28;;;;;;;8.73;100.00;100066.84;5012944;28;20465;-86
2022/12/18 00:34:31;;;;;;;84.57;50.05;;;;;;;8.88;100.00;100069.34;5014689;28;20037;-85
2022/12/18 00:36:56;;;;;;;72.93;47.67;;;;;;;9.04;100.00;100075.44;5013564;28;20064;-86
2022/12/18 00:39:22;;;;;;;77.82;49.55;;;;;;;8.83;100.00;100087.00;5014006;28;20034;-85
2022/12/18 00:44:31;;;;;;;74.05;45.83;;;;;;;9.02;100.00;100090.84;5015097;28;20083;-85
2022/12/18 00:46:56;;;;;;;70.85;45.20;;;;;;;9.06;100.00;100081.56;5013776;28;20484;-85
2022/12/18 00:49:22;;;;;;;72.18;46.50;;;;;;;9.01;100.00;100076.06;5013356;28;20058;-85
2022/12/18 00:51:48;;;;;;;75.68;45.95;;;;;;;8.99;100.00;100075.53;5013163;28;20030;-85
2022/12/18 00:54:14;;;;;;;69.38;43.00;;;;;;;9.01;100.00;100076.06;5013368;28;20084;-85
2022/12/18 00:56:39;;;;;;;64.22;42.70;;;;;;;9.15;100.00;100084.44;5012375;28;20041;-85
2022/12/18 00:59:05;;;;;;;68.63;44.13;;;;;;;9.29;100.00;100094.78;5014426;28;20496;-85
2022/12/18 01:01:32;;;;;;;71.05;43.90;;;;;;;8.87;100.00;100080.81;5005597;28;20030;-85
2022/12/18 01:03:58;;;;;;;70.38;44.58;;;;;;;8.68;100.00;100081.69;5008882;28;20033;-85
2022/12/18 01:06:24;;;;;;;72.35;45.85;;;;;;;8.87;100.00;100095.59;5013419;28;20029;-85
2022/12/18 01:08:49;;;;;;;73.93;44.65;;;;;;;8.88;100.00;100068.50;5013022;28;20034;-86
2022/12/18 01:11:17;;;;;;;73.30;45.70;;;;;;;9.01;100.00;100095.59;5012172;28;20034;-86
2022/12/18 01:13:43;;;;;;;77.45;45.15;;;;;;;9.17;100.00;100095.28;5013016;28;20030;-85
2022/12/18 01:16:12;;;;;;;70.80;43.20;;;;;;;9.19;100.00;100093.84;5014305;28;20036;-85
2022/12/18 01:18:37;;;;;;;72.97;45.70;;;;;;;9.03;100.00;100076.56;5013051;28;20112;-85
2022/12/18 01:21:11;;;;;;;73.13;43.60;;;;;;;9.10;100.00;100090.94;5011960;28;20478;-85
2022/12/18 01:23:37;;;;;;;70.00;40.15;;;;;;;9.26;100.00;100101.78;5012040;28;20492;-85
2022/12/18 01:26:12;;;;;;;58.65;35.33;;;;;;;9.29;100.00;100087.22;5012162;28;20507;-86
2022/12/18 01:28:39;;;;;;;57.92;36.70;;;;;;;9.36;100.00;100101.59;5013080;28;20570;-85
2022/12/18 01:31:12;;;;;;;47.78;30.38;;;;;;;9.30;100.00;100102.84;5011159;28;20064;-85
2022/12/18 01:33:37;;;;;;;56.65;34.15;;;;;;;9.19;100.00;100093.03;4993024;28;20030;-85
2022/12/18 01:36:03;;;;;;;48.08;31.55;;;;;;;9.13;100.00;100095.09;4993090;28;20088;-85
2022/12/18 01:38:29;;;;;;;51.30;30.63;;;;;;;8.88;100.00;100090.84;5005138;28;20080;-86
2022/12/18 01:40:59;;;;;;;49.90;31.73;;;;;;;8.99;100.00;100100.66;5012757;28;20369;-86
2022/12/18 01:43:50;;;;;;;52.25;32.78;;;;;;;9.17;100.00;100118.44;5012448;28;20022;-85
2022/12/18 01:46:18;;;;;;;49.05;33.28;;;;;;;9.21;100.00;100121.44;5012586;28;20065;-85
2022/12/18 01:48:46;;;;;;;49.95;30.13;;;;;;;9.27;100.00;100132.19;5012439;28;20400;-85
2022/12/18 01:51:12;;;;;;;52.97;31.63;;;;;;;9.18;100.00;100119.28;5012439;28;20022;-85
2022/12/18 01:53:40;;;;;;;53.22;32.30;;;;;;;9.33;100.00;100130.13;5011439;28;20026;-86
2022/12/18 01:56:07;;;;;;;48.20;29.10;;;;;;;9.44;100.00;100129.94;5012266;28;20030;-85
2022/12/18 01:58:53;;;;;;;45.70;30.15;;;;;;;9.29;100.00;100105.94;5013483;28;20022;-85
2022/12/18 02:01:22;;;;;;;49.13;29.20;;;;;;;9.28;100.00;100105.09;5012939;28;20033;-85
2022/12/18 02:03:48;;;;;;;49.97;30.20;;;;;;;9.45;100.00;100134.38;5013169;28;20451;-85
2022/12/18 02:06:23;;;;;;;48.08;31.80;;;;;;;9.16;100.00;100115.94;5011187;28;20025;-86
2022/12/18 02:09:14;;;;;;;47.95;30.40;;;;;;;9.05;100.00;100116.19;5010041;28;20193;-86
2022/12/18 02:11:46;;;;;;;47.42;30.05;;;;;;;9.15;100.00;100129.09;5010197;28;20029;-85
2022/12/18 02:14:20;;;;;;;47.05;30.33;;;;;;;9.23;100.00;100141.50;5011713;28;20116;-85
2022/12/18 02:16:56;;;;;;;41.28;27.40;;;;;;;8.96;100.00;100138.38;5011761;28;20492;-85
2022/12/18 02:19:57;;;;;;;43.60;27.52;;;;;;;8.97;100.00;100147.56;5011146;28;20029;-85
2022/12/18 02:22:57;;;;;;;41.17;26.40;;;;;;;8.97;100.00;100142.00;5008709;28;20497;-85
2022/12/18 02:26:01;;;;;;;41.43;25.83;;;;;;;8.96;100.00;100137.56;5023151;28;20116;-85
2022/12/18 02:28:34;;;;;;;38.72;23.95;;;;;;;8.91;100.00;100132.91;4990896;28;20465;-86
2022/12/18 02:31:04;;;;;;;39.85;25.05;;;;;;;8.96;100.00;100141.16;5005393;28;20045;-85
2022/12/18 02:33:31;;;;;;;41.07;25.87;;;;;;;8.96;100.00;100134.75;5011408;28;20522;-86
2022/12/18 02:35:58;;;;;;;37.17;23.25;;;;;;;8.97;100.00;100134.44;5011681;28;20807;-86
2022/12/18 02:38:25;;;;;;;40.90;25.30;;;;;;;9.07;100.00;100129.81;5011535;28;20022;-86
2022/12/18 02:40:53;;;;;;;33.97;22.42;;;;;;;9.09;100.00;100133.94;5010847;28;20057;-86
2022/12/18 02:43:19;;;;;;;32.90;21.50;;;;;;;8.98;100.00;100124.13;5027957;28;20022;-85
2022/12/18 02:45:57;;;;;;;30.88;20.73;;;;;;;9.12;100.00;100135.31;5027857;28;20033;-85
2022/12/18 02:48:25;;;;;;;33.72;22.52;;;;;;;9.07;100.00;100127.84;5011554;28;20021;-85
2022/12/18 02:51:17;;;;;;;34.90;19.75;;;;;;;9.15;100.00;100139.41;5011292;28;20403;-86
2022/12/18 02:54:06;;;;;;;32.42;20.05;;;;;;;9.12;100.00;100147.28;5009640;28;20037;-85
2022/12/18 02:56:38;;;;;;;36.28;20.05;;;;;;;9.11;100.00;100151.22;5012446;28;20458;-85
2022/12/18 02:59:13;;;;;;;28.35;17.10;;;;;;;9.11;100.00;100140.03;5011164;28;20480;-85
2022/12/18 03:01:57;;;;;;;29.90;20.08;;;;;;;9.07;100.00;100136.22;5011163;28;20451;-85
2022/12/18 03:04:38;;;;;;;56.03;33.33;;;;;;;8.99;100.00;100137.78;5010138;28;20034;-85
2022/12/18 03:07:19;;;;;;;52.30;35.10;;;;;;;8.96;100.00;100140.34;5011005;28;20030;-85
2022/12/18 03:09:49;;;;;;;54.17;35.53;;;;;;;8.86;100.00;100144.13;5010355;28;20028;-85
2022/12/18 03:12:25;;;;;;;40.92;26.35;;;;;;;8.94;100.00;100145.41;5010902;28;20026;-85
2022/12/18 03:15:03;;;;;;;29.05;20.48;;;;;;;8.97;100.00;100145.59;5011081;28;20547;-85
2022/12/18 03:17:32;;;;;;;31.42;21.70;;;;;;;9.04;100.00;100156.34;5012102;28;20037;-85
2022/12/18 03:20:03;;;;;;;39.78;27.73;;;;;;;8.77;100.00;100154.38;5010694;28;20049;-85
2022/12/18 03:22:31;;;;;;;35.15;24.88;;;;;;;8.74;100.00;100150.22;5008617;28;20558;-85
2022/12/18 03:25:00;;;;;;;31.17;20.65;;;;;;;8.62;100.00;100144.28;5007085;28;20025;-86
2022/12/18 03:27:29;;;;;;;32.88;20.48;;;;;;;8.67;100.00;100158.13;5011168;28;20030;-85
2022/12/18 03:30:09;;;;;;;36.60;20.90;;;;;;;8.59;100.00;100147.69;5010791;28;20033;-86
2022/12/18 03:33:00;;;;;;;35.33;20.50;;;;;;;8.47;100.00;100154.56;5012158;28;20029;-86
2022/12/18 03:35:34;;;;;;;;;;;;;;;8.56;100.00;100171.44;5011175;28;20025;-86
2022/12/18 03:38:00;;;;;;;47.80;29.67;;;;;;;8.49;100.00;100173.75;5008892;28;20026;-86
2022/12/18 03:40:55;;;;;;;50.42;29.65;;;;;;;8.29;100.00;100153.44;5010476;28;20077;-86
2022/12/18 03:43:47;;;;;;;43.60;25.80;;;;;;;8.45;100.00;100190.28;4993581;28;20045;-86
2022/12/18 03:46:38;;;;;;;34.08;22.05;;;;;;;8.40;100.00;100195.91;5010330;28;20033;-86
2022/12/18 03:49:10;;;;;;;32.63;19.17;;;;;;;8.45;100.00;100195.00;5010463;28;20092;-87
2022/12/18 03:51:42;;;;;;;30.42;19.40;;;;;;;8.37;100.00;100199.31;5011339;28;20032;-86
2022/12/18 03:54:09;;;;;;;34.28;20.60;;;;;;;8.29;100.00;100190.50;5009850;28;20026;-87
2022/12/18 03:56:48;;;;;;;34.72;22.83;;;;;;;8.36;100.00;100206.03;5009728;28;20081;-87
2022/12/18 03:59:16;;;;;;;25.50;17.23;;;;;;;8.27;100.00;100200.31;5009962;28;20026;-86
2022/12/18 04:01:47;;;;;;;26.35;13.68;;;;;;;8.26;100.00;100204.19;5011787;28;20102;-87
2022/12/18 04:04:15;;;;;;;22.23;14.77;;;;;;;8.24;100.00;100209.25;5010391;28;20033;-86
2022/12/18 04:06:43;;;;;;;19.50;13.45;;;;;;;8.18;100.00;100213.25;5010054;28;20145;-87
2022/12/18 04:09:08;;;;;;;33.70;15.07;;;;;;;8.14;100.00;100207.44;5008966;28;20033;-86
2022/12/18 04:11:34;;;;;;;18.58;12.40;;;;;;;8.10;100.00;100223.94;5011483;28;20404;-87
2022/12/18 04:13:59;;;;;;;18.40;11.60;;;;;;;8.19;100.00;100232.44;5010012;28;20030;-88
2022/12/18 04:16:25;;;;;;;20.70;11.75;;;;;;;8.09;100.00;100235.41;5010268;28;20025;-86
2022/12/18 04:18:52;;;;;;;17.55;12.00;;;;;;;8.05;100.00;100234.31;5009785;28;20096;-87
2022/12/18 04:21:18;;;;;;;16.63;12.48;;;;;;;7.92;100.00;100227.53;5026547;28;20461;-87
2022/12/18 04:23:43;;;;;;;17.58;11.70;;;;;;;7.89;100.00;100222.53;5010013;28;20041;-87
2022/12/18 04:26:09;;;;;;;19.27;11.85;;;;;;;7.84;100.00;100235.41;5009513;28;20092;-87
2022/12/18 04:28:34;;;;;;;18.02;11.43;;;;;;;7.84;100.00;100240.16;5010275;28;20033;-87
2022/12/18 04:31:00;;;;;;;13.77;10.52;;;;;;;7.83;100.00;100242.13;5010430;28;20137;-88
2022/12/18 04:33:25;;;;;;;15.57;10.60;;;;;;;7.85;100.00;100258.53;5008816;28;20026;-87
2022/12/18 04:35:51;;;;;;;14.30;10.23;;;;;;;7.69;100.00;100232.84;5009377;28;20109;-87
2022/12/18 04:38:16;;;;;;;17.58;10.60;;;;;;;7.81;100.00;100251.88;5010331;28;20084;-87
2022/12/18 04:40:42;;;;;;;16.70;10.95;;;;;;;7.79;100.00;100256.94;5009306;28;20026;-87
2022/12/18 04:43:07;;;;;;;17.58;12.60;;;;;;;7.83;100.00;100258.84;5026557;28;20481;-87
2022/12/18 04:45:33;;;;;;;26.02;16.70;;;;;;;7.73;100.00;100250.59;5010049;28;20028;-86
2022/12/18 04:47:59;;;;;;;37.70;22.35;;;;;;;8.08;100.00;100269.94;5008862;28;20028;-86
2022/12/18 04:50:25;;;;;;;27.52;16.65;;;;;;;8.18;100.00;100282.94;5009860;28;20169;-86
2022/12/18 04:52:51;;;;;;;26.67;16.67;;;;;;;7.94;100.00;100247.56;5026294;28;20026;-85
2022/12/18 04:55:16;;;;;;;24.80;15.57;;;;;;;8.11;100.00;100286.06;5026201;28;20025;-86
2022/12/18 04:57:41;;;;;;;26.35;17.35;;;;;;;8.16;100.00;100283.22;5013520;28;20079;-86
2022/12/18 05:00:08;;;;;;;37.70;24.45;;;;;;;8.10;100.00;100298.34;5014665;28;20069;-85
2022/12/18 05:02:33;;;;;;;46.92;30.30;;;;;;;8.01;100.00;100296.22;5013268;28;20022;-86
2022/12/18 05:04:59;;;;;;;34.78;24.58;;;;;;;8.03;100.00;100300.66;5012421;28;20041;-86
2022/12/18 05:07:24;;;;;;;34.13;24.65;;;;;;;7.86;100.00;100286.09;5013368;28;20018;-85
2022/12/18 05:09:50;;;;;;;22.73;14.95;;;;;;;7.95;100.00;100311.31;5011947;28;20116;-86
2022/12/18 05:12:15;;;;;;;18.80;12.85;;;;;;;7.96;100.00;100317.75;5014297;28;20053;-87
2022/12/18 05:14:41;;;;;;;22.35;13.88;;;;;;;7.74;100.00;100291.25;5012590;28;20416;-86
2022/12/18 05:17:06;;;;;;;27.15;16.45;;;;;;;7.75;100.00;100322.72;5013147;28;20416;-87
2022/12/18 05:19:32;;;;;;;23.23;15.68;;;;;;;7.69;100.00;100336.69;5012750;28;20046;-87
2022/12/18 05:21:57;;;;;;;24.80;13.85;;;;;;;7.45;100.00;100315.19;5013250;28;20490;-88
2022/12/18 05:24:23;;;;;;;21.27;14.00;;;;;;;7.56;100.00;100327.09;5012825;28;20117;-86
2022/12/18 05:26:48;;;;;;;21.77;14.05;;;;;;;7.48;100.00;100304.59;5012354;28;20033;-87
2022/12/18 05:29:14;;;;;;;22.23;14.68;;;;;;;7.56;100.00;100327.09;5013159;28;20456;-86
2022/12/18 05:31:39;;;;;;;23.60;14.13;;;;;;;7.59;100.00;100345.97;5014150;28;20041;-86
2022/12/18 05:34:05;;;;;;;19.20;12.70;;;;;;;7.49;100.00;100321.00;5008638;28;20037;-87
2022/12/18 05:36:31;;;;;;;22.30;12.77;;;;;;;7.62;100.00;100358.50;5012734;28;20428;-87
2022/12/18 05:38:56;;;;;;;24.95;15.77;;;;;;;7.65;100.00;100354.28;5012794;28;20080;-85
2022/12/18 05:41:22;;;;;;;23.63;15.25;;;;;;;7.64;100.00;100358.19;5013707;28;20113;-87
2022/12/18 05:43:47;;;;;;;29.58;18.10;;;;;;;7.58;100.00;100346.25;5012306;28;20049;-87
2022/12/18 05:46:16;;;;;;;23.58;16.13;;;;;;;7.71;100.00;100378.97;5011664;28;20030;-86
2022/12/18 05:48:45;;;;;;;33.20;20.40;;;;;;;7.59;100.00;100361.84;5012384;28;20398;-86
2022/12/18 05:51:16;;;;;;;24.92;15.70;;;;;;;7.49;100.00;100342.47;5012571;28;20033;-86
2022/12/18 05:53:42;;;;;;;21.38;14.85;;;;;;;7.72;100.00;100380.69;5013346;28;20417;-87
2022/12/18 05:56:14;;;;;;;28.73;16.65;;;;;;;7.69;100.00;100381.25;5007955;28;20037;-87
2022/12/18 05:58:42;;;;;;;28.80;17.85;;;;;;;7.63;100.00;100376.00;5013662;28;20029;-87
2022/12/18 06:01:23;;;;;;;25.08;16.75;;;;;;;7.78;100.00;100387.00;5011132;28;20029;-86
2022/12/18 06:03:49;;;;;;;31.17;18.05;;;;;;;7.89;100.00;100389.69;5013531;28;20030;-87
2022/12/18 06:06:20;;;;;;;32.28;19.60;;;;;;;7.84;100.00;100388.63;5011043;28;20089;-86
2022/12/18 06:08:46;;;;;;;44.97;30.38;;;;;;;7.85;100.00;100400.59;5012130;28;20029;-86
2022/12/18 06:11:23;;;;;;;34.40;19.75;;;;;;;7.91;100.00;100374.34;5012038;28;20025;-86
2022/12/18 06:13:53;;;;;;;48.00;26.90;;;;;;;7.96;100.00;100404.94;5011976;28;20065;-86
2022/12/18 06:16:18;;;;;;;;;;;;;;;7.89;100.00;100404.44;5011779;28;20204;-86
2022/12/18 06:18:44;;;;;;;41.47;24.38;;;;;;;7.89;100.00;100412.81;5011849;28;20362;-86
2022/12/18 06:21:12;;;;;;;32.70;17.13;;;;;;;7.86;100.00;100419.78;4998478;28;20236;-86
2022/12/18 06:23:38;;;;;;;26.05;17.45;;;;;;;7.84;100.00;100427.63;5028344;28;20028;-87
2022/12/18 06:26:11;;;;;;;26.65;18.17;;;;;;;7.66;100.00;100406.88;5011867;28;20030;-86
2022/12/18 06:28:40;;;;;;;23.40;13.60;;;;;;;7.77;100.00;100420.72;5013061;28;20030;-86
2022/12/18 06:31:06;;;;;;;18.92;13.63;;;;;;;7.59;100.00;100403.59;5011182;28;20087;-87
2022/12/18 06:33:33;;;;;;;32.22;21.63;;;;;;;7.72;100.00;100430.81;5011776;28;20061;-87
2022/12/18 06:36:17;;;;;;;29.33;17.95;;;;;;;7.69;100.00;100420.22;5011349;28;20471;-87
2022/12/18 06:38:43;;;;;;;30.17;18.38;;;;;;;7.81;100.00;100444.06;5011723;28;20127;-86
2022/12/18 06:41:11;;;;;;;29.52;18.95;;;;;;;7.76;100.00;100450.53;5011317;28;20496;-86
2022/12/18 06:43:45;;;;;;;28.08;18.30;;;;;;;7.88;100.00;100461.28;5008397;28;20551;-86
2022/12/18 06:46:12;;;;;;;27.77;16.80;;;;;;;7.82;100.00;100463.28;5009970;28;20038;-86
2022/12/18 06:48:37;;;;;;;29.90;16.73;;;;;;;7.92;100.00;100455.97;5009835;28;20041;-87
2022/12/18 06:51:03;;;;;;;36.67;22.38;;;;;;;8.03;100.00;100465.06;5009017;28;20029;-86
2022/12/18 06:53:29;;;;;;;49.05;25.42;;;;;;;7.88;99.77;100447.38;5009970;28;20030;-87
2022/12/18 06:56:06;;;;;;;35.20;21.58;;;;;;;7.97;99.79;100462.31;5008746;28;20578;-87
2022/12/18 06:58:32;;;;;;;52.40;33.67;;;;;;;7.99;99.81;100468.44;5007808;28;20034;-88
2022/12/18 07:01:06;;;;;;;60.20;48.97;;;;;;;8.07;99.04;100480.03;5007798;28;20036;-86
2022/12/18 07:03:32;;;;;;;32.75;23.70;;;;;;;8.11;97.88;100481.97;5007752;28;20493;-87
2022/12/18 07:05:57;;;;;;;26.45;16.80;;;;;;;7.98;98.05;100471.50;5008578;28;20044;-88
2022/12/18 07:08:23;;;;;;;24.77;15.82;;;;;;;7.92;97.53;100464.31;5008703;28;20022;-86
2022/12/18 07:10:49;;;;;;;22.08;14.50;;;;;;;7.81;96.40;100441.28;5009476;28;20060;-87
2022/12/18 07:13:16;;;;;;;22.65;15.02;;;;;;;7.68;97.00;100457.56;5008668;28;20026;-87
2022/12/18 07:15:41;;;;;;;19.58;14.07;;;;;;;7.83;97.64;100478.03;5008708;28;20405;-87
2022/12/18 07:18:07;;;;;;;28.63;18.27;;;;;;;7.84;97.13;100490.84;5007429;28;20096;-87
2022/12/18 07:20:33;;;;;;;23.42;15.20;;;;;;;7.80;96.93;100504.53;5009342;28;20058;-87
2022/12/18 07:22:58;;;;;;;30.90;21.88;;;;;;;7.87;96.84;100498.63;5010072;28;20180;-86
2022/12/18 07:25:23;;;;;;;28.63;19.48;;;;;;;7.88;96.68;100500.28;5008368;28;20034;-86
2022/12/18 07:27:51;;;;;;;19.38;14.05;;;;;;;7.82;95.49;100490.31;5007642;28;20032;-86
2022/12/18 07:30:17;;;;;;;18.48;10.45;;;;;;;7.93;95.27;100500.22;5009356;28;20044;-86
2022/12/18 07:32:42;;;;;;;21.00;12.30;;;;;;;7.87;94.01;100490.28;5008257;28;20033;-87
2022/12/18 07:35:08;;;;;;;16.23;11.63;;;;;;;7.87;93.45;100491.09;5008320;28;20404;-87
2022/12/18 07:37:33;;;;;;;16.80;10.55;;;;;;;7.89;92.42;100503.88;5008260;28;20029;-87
2022/12/18 07:39:59;;;;;;;13.93;10.40;;;;;;;7.76;93.34;100486.72;5007859;28;20053;-87
2022/12/18 07:42:30;;;;;;;17.17;11.13;;;;;;;7.75;94.09;100490.63;4992074;28;20092;-88
2022/12/18 07:44:56;;;;;;;21.77;12.90;;;;;;;7.91;93.86;100515.59;4989967;28;20030;-87
2022/12/18 07:47:22;;;;;;;25.45;16.00;;;;;;;7.75;93.78;100479.50;5004316;28;20034;-86
2022/12/18 07:49:50;;;;;;;21.73;13.55;;;;;;;7.91;93.04;100515.59;5008148;28;20091;-87
2022/12/18 07:52:15;;;;;;;23.17;13.77;;;;;;;7.87;93.46;100507.00;5007849;28;20036;-87
2022/12/18 07:54:41;;;;;;;20.48;12.00;;;;;;;7.90;93.68;100509.19;5007852;28;20038;-88
2022/12/18 07:57:07;;;;;;;18.20;11.73;;;;;;;8.01;92.89;100530.25;5007836;28;20095;-87
2022/12/18 07:59:33;;;;;;;15.93;10.25;;;;;;;7.96;93.18;100516.38;5005923;28;20040;-87
2022/12/18 08:01:58;;;;;;;15.25;10.77;;;;;;;8.01;91.76;100533.06;5007919;28;20033;-89
2022/12/18 08:04:24;;;;;;;19.85;12.77;;;;;;;7.98;91.96;100513.28;5006103;28;20030;-88
2022/12/18 08:06:50;;;;;;;19.77;12.20;;;;;;;8.15;91.34;100549.09;5005900;28;20025;-87
2022/12/18 08:09:16;;;;;;;17.55;11.45;;;;;;;8.07;92.78;100536.63;5007906;28;20104;-87
2022/12/18 08:11:41;;;;;;;24.00;11.82;;;;;;;8.12;91.67;100556.06;5005127;28;20040;-87
2022/12/18 08:14:07;;;;;;;16.77;11.60;;;;;;;8.11;91.90;100543.25;5006206;28;20033;-87
2022/12/18 08:16:32;;;;;;;20.23;11.77;;;;;;;8.15;92.06;100558.31;5001480;28;20405;-86
2022/12/18 08:18:58;;;;;;;20.55;12.27;;;;;;;8.17;90.11;100546.03;5002673;28;20033;-87
2022/12/18 08:21:27;;;;;;;19.75;12.05;;;;;;;8.21;90.92;100567.44;5005357;28;20060;-87
2022/12/18 08:23:54;;;;;;;23.58;12.32;;;;;;;8.21;89.38;100563.81;5006766;28;20548;-87
2022/12/18 08:26:20;;;;;;;17.08;11.75;;;;;;;8.25;89.63;100565.72;5003500;28;20538;-87
2022/12/18 08:28:46;;;;;;;22.83;13.80;;;;;;;8.23;90.95;100556.84;5006259;28;20030;-87
2022/12/18 08:31:11;;;;;;;20.67;13.10;;;;;;;8.38;90.64;100571.75;5010821;28;20056;-87
2022/12/18 08:33:38;;;;;;;19.95;12.27;;;;;;;8.43;91.19;100571.69;5009797;28;20116;-86
2022/12/18 08:36:05;;;;;;;17.52;11.02;;;;;;;8.44;90.53;100564.97;5010195;28;20030;-86
2022/12/18 08:38:34;;;;;;;18.48;11.55;;;;;;;8.42;88.48;100570.03;5010956;28;20432;-86
2022/12/18 08:41:19;;;;;;;32.50;13.50;;;;;;;8.38;90.42;100550.25;5008856;28;20416;-86
2022/12/18 08:46:38;;;;;;;18.65;11.63;;;;;;;8.54;90.57;100567.69;5011369;28;20040;-86
2022/12/18 08:49:05;;;;;;;23.20;14.85;;;;;;;8.59;90.48;100569.59;5011432;28;20038;-86
2022/12/18 08:51:31;;;;;;;19.17;11.73;;;;;;;8.49;87.90;100556.59;5008790;28;20053;-84
2022/12/18 08:53:57;;;;;;;21.00;12.07;;;;;;;8.56;86.64;100557.06;5009919;28;20382;-85
2022/12/18 08:56:23;;;;;;;18.73;12.55;;;;;;;8.60;87.01;100562.91;5009145;28;20032;-85
2022/12/18 08:58:51;;;;;;;25.05;12.70;;;;;;;8.68;88.34;100561.44;5008601;28;20131;-85
2022/12/18 09:01:17;;;;;;;22.10;12.38;;;;;;;8.68;87.32;100555.84;5001382;28;20479;-85
2022/12/18 09:03:42;;;;;;;19.92;12.38;;;;;;;8.74;87.19;100559.41;5010621;28;20030;-86
2022/12/18 09:06:08;;;;;;;31.33;18.10;;;;;;;8.71;87.08;100558.88;5011540;28;20528;-85
2022/12/18 09:08:33;;;;;;;25.27;15.95;;;;;;;8.61;86.60;100533.88;5009178;28;20042;-85
2022/12/18 09:10:59;;;;;;;28.33;16.98;;;;;;;8.65;85.95;100522.97;5010153;28;20033;-86
2022/12/18 09:13:24;;;;;;;23.98;14.65;;;;;;;8.65;85.48;100523.81;5006034;28;20084;-88
2022/12/18 09:15:53;;;;;;;21.63;13.68;;;;;;;8.72;85.65;100537.41;5008712;28;20523;-87
2022/12/18 09:18:20;;;;;;;19.98;13.48;;;;;;;8.87;85.09;100569.03;5017936;28;20057;-86
2022/12/18 09:20:45;;;;;;;20.92;12.35;;;;;;;8.85;85.06;100564.59;5007709;28;20048;-87
2022/12/18 09:23:12;;;;;;;18.63;11.45;;;;;;;8.88;85.92;100562.34;5008699;28;20033;-85
2022/12/18 09:25:38;;;;;;;21.42;10.57;;;;;;;8.90;84.71;100557.28;5008214;28;20030;-85
2022/12/18 09:28:09;;;;;;;17.85;11.55;;;;;;;8.95;84.93;100565.59;5010923;28;20099;-84
2022/12/18 09:30:37;;;;;;;20.35;12.35;;;;;;;8.93;84.69;100562.25;5006891;28;20034;-84
2022/12/18 09:33:03;;;;;;;21.90;12.82;;;;;;;8.81;84.20;100538.44;5007420;28;20476;-84
2022/12/18 09:35:28;;;;;;;20.13;12.57;;;;;;;8.91;82.94;100553.34;5020332;28;20061;-85
2022/12/18 09:37:54;;;;;;;16.85;11.70;;;;;;;8.99;83.74;100566.66;5009151;28;20496;-85
2022/12/18 09:40:25;;;;;;;16.70;11.35;;;;;;;8.86;83.62;100543.09;5008404;28;20487;-85
2022/12/18 09:42:57;;;;;;;32.00;21.40;;;;;;;8.88;83.42;100552.00;5010398;28;20058;-85
2022/12/18 09:45:24;;;;;;;20.40;14.20;;;;;;;8.96;82.49;100564.47;5007303;28;20025;-85
2022/12/18 09:47:52;;;;;;;20.23;13.20;;;;;;;8.93;81.64;100565.91;5007314;28;20025;-85
2022/12/18 09:50:40;;;;;;;23.20;13.75;;;;;;;8.96;82.17;100572.84;5011230;28;20044;-86
2022/12/18 09:53:26;;;;;;;22.45;14.38;;;;;;;8.94;83.30;100563.94;5009778;28;20038;-85
2022/12/18 09:55:54;;;;;;;31.60;18.30;;;;;;;8.90;83.54;100557.28;5022616;28;20064;-85
2022/12/18 09:58:40;;;;;;;64.13;27.20;;;;;;;8.82;82.27;100562.41;5008296;28;20488;-86
2022/12/18 10:01:18;;;;;;;34.65;17.10;;;;;;;8.77;81.31;100551.28;5022925;28;21233;-87
2022/12/18 10:03:44;;;;;;;16.98;11.80;;;;;;;8.81;82.53;100566.31;5002445;28;20085;-85
2022/12/18 10:06:40;;;;;;;22.67;12.35;;;;;;;8.79;83.40;100564.94;5002973;28;20112;-86
2022/12/18 10:09:09;;;;;;;19.13;10.70;;;;;;;8.75;80.67;100566.66;5008014;28;20040;-86
2022/12/18 10:11:47;;;;;;;25.73;11.93;;;;;;;8.68;82.61;100565.06;5008408;28;20490;-86
2022/12/18 10:14:29;;;;;;;28.33;15.25;;;;;;;8.63;82.98;100559.53;5010326;28;20124;-86
2022/12/18 10:17:07;;;;;;;20.30;14.07;;;;;;;8.60;84.49;100573.25;5015027;28;20053;-86
2022/12/18 10:19:50;;;;;;;33.72;20.38;;;;;;;8.62;83.54;100574.59;5013935;28;20041;-86
2022/12/18 10:22:36;;;;;;;24.88;15.52;;;;;;;8.53;83.62;100557.69;5012401;28;20404;-88
2022/12/18 10:25:14;;;;;;;32.75;18.02;;;;;;;8.60;84.03;100559.31;5011582;28;20054;-86
2022/12/18 10:27:40;;;;;;;139.40;89.85;;;;;;;8.58;83.95;100562.38;5004846;28;20535;-86
2022/12/18 10:30:22;;;;;;;28.02;18.83;;;;;;;8.62;87.18;100568.19;5013743;28;20022;-86
2022/12/18 10:32:47;;;;;;;28.50;17.95;;;;;;;8.64;87.77;100571.53;5009603;28;20095;-87
2022/12/18 10:35:24;;;;;;;18.30;11.02;;;;;;;8.68;83.28;100570.63;5011094;28;20030;-86
2022/12/18 10:38:03;;;;;;;19.23;10.95;;;;;;;8.69;82.21;100572.28;5010851;28;20029;-87
2022/12/18 10:40:29;;;;;;;17.20;10.30;;;;;;;8.77;82.17;100578.38;5009315;28;20034;-85
2022/12/18 10:43:16;;;;;;;16.50;10.60;;;;;;;8.79;80.25;100573.31;5010972;28;20034;-85
2022/12/18 10:45:43;;;;;;;16.88;10.30;;;;;;;8.83;81.28;100574.38;5010068;28;20033;-86
2022/12/18 10:48:19;;;;;;;14.75;9.80;;;;;;;8.82;81.29;100579.16;5011904;28;20021;-87
2022/12/18 10:50:49;;;;;;;17.13;10.23;;;;;;;8.96;80.08;100581.22;5010121;28;20116;-85
2022/12/18 10:53:21;;;;;;;19.23;10.57;;;;;;;9.01;80.92;100575.56;5011454;28;20021;-88
2022/12/18 10:55:48;;;;;;;14.80;10.38;;;;;;;9.04;80.97;100574.97;5010118;28;20519;-87
2022/12/18 10:58:31;;;;;;;21.77;12.18;;;;;;;9.12;81.22;100588.28;5004830;28;20037;-87
2022/12/18 11:01:19;;;;;;;17.75;10.45;;;;;;;8.98;80.42;100551.06;5007678;28;20515;-87
2022/12/18 11:03:46;;;;;;;16.17;10.90;;;;;;;9.22;82.13;100581.72;5006114;28;20488;-86
2022/12/18 11:06:14;;;;;;;18.73;9.73;;;;;;;9.16;80.19;100568.13;5009774;28;20037;-85
2022/12/18 11:08:57;;;;;;;16.55;10.00;;;;;;;9.13;78.64;100575.97;4995302;28;20753;-86
2022/12/18 11:11:24;;;;;;;29.23;11.95;;;;;;;9.15;78.82;100572.91;5003554;28;20032;-87
2022/12/18 11:14:24;;;;;;;16.20;10.65;;;;;;;9.23;78.47;100579.78;5016049;28;20026;-86
2022/12/18 11:16:52;;;;;;;19.30;11.90;;;;;;;9.26;79.14;100579.16;5010040;28;20049;-86
2022/12/18 11:19:32;;;;;;;18.80;10.93;;;;;;;9.19;78.64;100584.31;5007398;28;20056;-86
2022/12/18 11:21:58;;;;;;;;;;;;;;;9.19;78.18;100584.31;5007999;28;20444;-86
2022/12/18 11:24:31;;;;;;;28.85;15.02;;;;;;;9.20;78.47;100583.16;5008261;28;19913;-86
2022/12/18 11:27:03;;;;;;;26.25;14.20;;;;;;;9.10;79.53;100579.38;5008188;28;20112;-86
2022/12/18 11:29:39;;;;;;;19.70;12.07;;;;;;;9.14;78.63;100596.34;5008971;28;20416;-86
2022/12/18 11:32:32;;;;;;;20.40;12.50;;;;;;;9.13;77.71;100587.13;5008067;28;20014;-86